Terminal Aerodrome Forecast
Issued by NWS

Home | Current Version | Previous Version | Text Only | Print | Product List | Glossary On
Versions: 1 2 3 4 5 6 7 8 9 10 11 12
000
FTUS46 KPDT 022300
TAFPSC
TAF
KPSC 022322Z 0300/0324 25011KT P6SM SKC
     FM030200 27015G23KT P6SM FEW090
     FM030700 24011KT P6SM FEW090
     FM031900 VRB06KT P6SM SKC=

USA.gov is the U.S. government's official web portal to all federal, state and local government web resources and services.